createdAt,value
2022-08-13T00:19:56.072Z,24.38
2022-08-13T00:48:10.873Z,25.02
2022-08-13T01:17:07.709Z,24.69
2022-08-13T01:45:16.633Z,24.47
2022-08-13T02:13:38.930Z,24.22
2022-08-13T02:41:35.390Z,22.97
2022-08-13T03:09:46.456Z,20.4
2022-08-13T03:38:06.395Z,20.75
2022-08-13T04:06:10.565Z,20.72
2022-08-13T04:34:48.963Z,22.55
2022-08-13T05:03:06.914Z,23.16
2022-08-13T05:31:25.317Z,22.88
2022-08-13T05:59:52.164Z,23.24
2022-08-13T06:28:00.414Z,23.41
2022-08-13T06:56:36.159Z,23.74
2022-08-13T07:24:53.150Z,24.92
2022-08-13T07:53:09.232Z,25.63
2022-08-13T08:21:47.287Z,25.69
2022-08-13T08:50:06.940Z,26.98
2022-08-13T09:18:20.237Z,26.91
2022-08-13T09:46:49.133Z,27.13
2022-08-13T10:15:05.965Z,27.36
2022-08-13T10:43:46.164Z,29.01
2022-08-13T11:11:55.621Z,29.14
2022-08-13T11:40:34.005Z,29.06
2022-08-13T12:09:15.645Z,29.61
2022-08-13T12:37:23.887Z,29.98
2022-08-13T13:05:40.536Z,29.99
2022-08-13T13:33:57.107Z,29.9
2022-08-13T14:03:02.337Z,30.4
2022-08-13T14:31:54.232Z,30.51
2022-08-13T15:00:24.921Z,30.02
2022-08-13T15:28:38.354Z,30.52
2022-08-13T15:57:41.340Z,30.65
2022-08-13T16:26:26.168Z,30.74
2022-08-13T16:54:40.684Z,30.41
2022-08-13T17:22:55.218Z,30.07
2022-08-13T17:51:22.768Z,29.87
2022-08-13T18:19:42.781Z,29.44
2022-08-13T18:48:02.758Z,28.89
2022-08-13T19:16:20.510Z,28.07
2022-08-13T19:44:38.002Z,27.22
2022-08-13T20:12:53.653Z,26.57
2022-08-13T20:41:48.217Z,27.71
2022-08-13T21:10:31.026Z,27.56
2022-08-13T21:38:33.520Z,26.47
2022-08-13T22:07:13.867Z,26.72
2022-08-13T22:35:56.668Z,26.97
2022-08-13T23:04:23.206Z,26.35
2022-08-13T23:32:38.007Z,26.31
